sensor_id;sensor_type;location;lat;lon;timestamp;pressure;altitude;pressure_sealevel;temperature;humidity
32933;BME280;19444;50.518;10.870;2023-03-18T00:01:04;96013.09;;;4.40;100.00
32933;BME280;19444;50.518;10.870;2023-03-18T00:04:03;96010.38;;;4.16;100.00
32933;BME280;19444;50.518;10.870;2023-03-18T00:07:00;96009.38;;;4.07;100.00
32933;BME280;19444;50.518;10.870;2023-03-18T00:09:57;96017.81;;;4.14;100.00
32933;BME280;19444;50.518;10.870;2023-03-18T00:12:54;96019.66;;;4.14;100.00
32933;BME280;19444;50.518;10.870;2023-03-18T00:15:51;96008.13;;;4.28;100.00
32933;BME280;19444;50.518;10.870;2023-03-18T00:18:48;96007.03;;;4.35;100.00
32933;BME280;19444;50.518;10.870;2023-03-18T00:21:45;96022.03;;;4.44;100.00
32933;BME280;19444;50.518;10.870;2023-03-18T00:24:42;96016.28;;;4.37;100.00
32933;BME280;19444;50.518;10.870;2023-03-18T00:27:39;96029.69;;;4.22;100.00
32933;BME280;19444;50.518;10.870;2023-03-18T00:30:38;96026.31;;;4.11;100.00
32933;BME280;19444;50.518;10.870;2023-03-18T00:33:40;96033.53;;;4.00;100.00
32933;BME280;19444;50.518;10.870;2023-03-18T00:36:41;96036.19;;;4.00;100.00
32933;BME280;19444;50.518;10.870;2023-03-18T00:39:38;96040.19;;;4.03;100.00
32933;BME280;19444;50.518;10.870;2023-03-18T00:42:39;96041.66;;;4.48;100.00
32933;BME280;19444;50.518;10.870;2023-03-18T00:45:44;96044.34;;;4.43;100.00
32933;BME280;19444;50.518;10.870;2023-03-18T00:48:42;96049.84;;;4.23;100.00
32933;BME280;19444;50.518;10.870;2023-03-18T00:51:39;96044.19;;;4.29;100.00
32933;BME280;19444;50.518;10.870;2023-03-18T00:54:37;96043.97;;;4.26;100.00
32933;BME280;19444;50.518;10.870;2023-03-18T00:57:35;96039.50;;;4.21;100.00
32933;BME280;19444;50.518;10.870;2023-03-18T01:00:32;96040.81;;;4.24;100.00
32933;BME280;19444;50.518;10.870;2023-03-18T01:03:30;96051.72;;;4.17;100.00
32933;BME280;19444;50.518;10.870;2023-03-18T01:06:29;96046.72;;;4.11;100.00
32933;BME280;19444;50.518;10.870;2023-03-18T01:09:27;96052.16;;;3.95;100.00
32933;BME280;19444;50.518;10.870;2023-03-18T01:12:24;96058.13;;;4.11;100.00
32933;BME280;19444;50.518;10.870;2023-03-18T01:15:21;96067.16;;;4.10;100.00
32933;BME280;19444;50.518;10.870;2023-03-18T01:18:19;96062.97;;;4.04;100.00
32933;BME280;19444;50.518;10.870;2023-03-18T01:21:16;96058.47;;;4.05;100.00
32933;BME280;19444;50.518;10.870;2023-03-18T01:24:13;96061.03;;;4.15;100.00
32933;BME280;19444;50.518;10.870;2023-03-18T01:27:10;96068.69;;;4.16;100.00
32933;BME280;19444;50.518;10.870;2023-03-18T01:30:08;96067.78;;;3.97;100.00
32933;BME280;19444;50.518;10.870;2023-03-18T01:33:06;96074.59;;;4.08;100.00
32933;BME280;19444;50.518;10.870;2023-03-18T01:36:04;96074.72;;;3.88;100.00
32933;BME280;19444;50.518;10.870;2023-03-18T01:39:01;96078.59;;;4.06;100.00
32933;BME280;19444;50.518;10.870;2023-03-18T01:41:59;96067.00;;;3.91;100.00
32933;BME280;19444;50.518;10.870;2023-03-18T01:45:24;96069.94;;;3.95;100.00
32933;BME280;19444;50.518;10.870;2023-03-18T01:48:28;96072.53;;;4.00;100.00
32933;BME280;19444;50.518;10.870;2023-03-18T01:51:26;96072.50;;;4.05;100.00
32933;BME280;19444;50.518;10.870;2023-03-18T01:54:25;96073.75;;;3.74;100.00
32933;BME280;19444;50.518;10.870;2023-03-18T01:57:22;96072.94;;;3.78;100.00
32933;BME280;19444;50.518;10.870;2023-03-18T02:00:20;96078.31;;;3.63;100.00
32933;BME280;19444;50.518;10.870;2023-03-18T02:03:19;96089.06;;;3.82;100.00
32933;BME280;19444;50.518;10.870;2023-03-18T02:06:17;96081.19;;;3.71;100.00
32933;BME280;19444;50.518;10.870;2023-03-18T02:09:14;96089.88;;;3.82;100.00
32933;BME280;19444;50.518;10.870;2023-03-18T02:12:15;96092.56;;;3.72;100.00
32933;BME280;19444;50.518;10.870;2023-03-18T02:15:18;96096.81;;;3.73;100.00
32933;BME280;19444;50.518;10.870;2023-03-18T02:18:22;96094.44;;;3.71;100.00
32933;BME280;19444;50.518;10.870;2023-03-18T02:21:51;96097.88;;;3.77;100.00
32933;BME280;19444;50.518;10.870;2023-03-18T02:25:32;96109.53;;;3.76;100.00
32933;BME280;19444;50.518;10.870;2023-03-18T02:28:34;96111.84;;;3.88;100.00
32933;BME280;19444;50.518;10.870;2023-03-18T02:31:35;96106.03;;;3.81;100.00
32933;BME280;19444;50.518;10.870;2023-03-18T02:34:33;96102.88;;;3.79;100.00
32933;BME280;19444;50.518;10.870;2023-03-18T02:37:31;96103.53;;;3.99;100.00
32933;BME280;19444;50.518;10.870;2023-03-18T02:40:32;96114.44;;;3.93;100.00
32933;BME280;19444;50.518;10.870;2023-03-18T02:43:32;96121.25;;;4.09;100.00
32933;BME280;19444;50.518;10.870;2023-03-18T02:46:48;96119.28;;;4.25;100.00
32933;BME280;19444;50.518;10.870;2023-03-18T02:49:47;96126.03;;;4.07;100.00
32933;BME280;19444;50.518;10.870;2023-03-18T02:52:45;96124.69;;;4.10;100.00
32933;BME280;19444;50.518;10.870;2023-03-18T02:55:42;96127.53;;;4.23;100.00
32933;BME280;19444;50.518;10.870;2023-03-18T02:58:39;96123.66;;;4.06;100.00
32933;BME280;19444;50.518;10.870;2023-03-18T03:01:39;96129.97;;;4.15;100.00
32933;BME280;19444;50.518;10.870;2023-03-18T03:04:36;96132.03;;;4.23;100.00
32933;BME280;19444;50.518;10.870;2023-03-18T03:07:34;96128.34;;;4.19;100.00
32933;BME280;19444;50.518;10.870;2023-03-18T03:10:31;96138.09;;;4.28;100.00
32933;BME280;19444;50.518;10.870;2023-03-18T03:13:28;96141.66;;;4.14;100.00
32933;BME280;19444;50.518;10.870;2023-03-18T03:16:25;96133.63;;;4.24;100.00
32933;BME280;19444;50.518;10.870;2023-03-18T03:19:22;96136.50;;;4.27;100.00
32933;BME280;19444;50.518;10.870;2023-03-18T03:22:19;96138.28;;;4.37;100.00
32933;BME280;19444;50.518;10.870;2023-03-18T03:25:16;96145.47;;;4.37;100.00
32933;BME280;19444;50.518;10.870;2023-03-18T03:28:15;96148.03;;;4.47;100.00
32933;BME280;19444;50.518;10.870;2023-03-18T03:31:13;96154.50;;;4.36;100.00
32933;BME280;19444;50.518;10.870;2023-03-18T03:34:10;96148.31;;;4.45;100.00
32933;BME280;19444;50.518;10.870;2023-03-18T03:37:07;96150.78;;;4.37;100.00
32933;BME280;19444;50.518;10.870;2023-03-18T03:40:05;96150.38;;;4.53;100.00
32933;BME280;19444;50.518;10.870;2023-03-18T03:43:02;96144.31;;;4.48;100.00
32933;BME280;19444;50.518;10.870;2023-03-18T03:45:59;96159.19;;;4.49;100.00
32933;BME280;19444;50.518;10.870;2023-03-18T03:48:56;96162.94;;;4.43;100.00
32933;BME280;19444;50.518;10.870;2023-03-18T03:51:53;96161.38;;;4.42;100.00
32933;BME280;19444;50.518;10.870;2023-03-18T03:54:50;96151.75;;;4.46;100.00
32933;BME280;19444;50.518;10.870;2023-03-18T03:57:48;96156.25;;;4.50;100.00
32933;BME280;19444;50.518;10.870;2023-03-18T04:00:44;96151.25;;;4.44;100.00
32933;BME280;19444;50.518;10.870;2023-03-18T04:03:41;96163.97;;;4.47;100.00
32933;BME280;19444;50.518;10.870;2023-03-18T04:06:38;96165.28;;;4.49;100.00
32933;BME280;19444;50.518;10.870;2023-03-18T04:09:35;96168.25;;;4.43;100.00
32933;BME280;19444;50.518;10.870;2023-03-18T04:12:32;96167.53;;;4.32;100.00
32933;BME280;19444;50.518;10.870;2023-03-18T04:15:29;96170.56;;;4.10;100.00
32933;BME280;19444;50.518;10.870;2023-03-18T04:18:26;96171.34;;;4.16;100.00
32933;BME280;19444;50.518;10.870;2023-03-18T04:21:23;96168.22;;;4.04;100.00
32933;BME280;19444;50.518;10.870;2023-03-18T04:24:20;96158.94;;;4.06;100.00
32933;BME280;19444;50.518;10.870;2023-03-18T04:27:18;96158.13;;;4.06;100.00
32933;BME280;19444;50.518;10.870;2023-03-18T04:30:15;96156.00;;;4.08;100.00
32933;BME280;19444;50.518;10.870;2023-03-18T04:33:13;96158.63;;;4.13;100.00
32933;BME280;19444;50.518;10.870;2023-03-18T04:36:10;96158.38;;;4.09;100.00
32933;BME280;19444;50.518;10.870;2023-03-18T04:39:08;96159.44;;;4.08;100.00
32933;BME280;19444;50.518;10.870;2023-03-18T04:42:05;96153.34;;;4.08;100.00
32933;BME280;19444;50.518;10.870;2023-03-18T04:45:03;96153.91;;;3.99;100.00
32933;BME280;19444;50.518;10.870;2023-03-18T04:48:01;96154.50;;;3.91;100.00
32933;BME280;19444;50.518;10.870;2023-03-18T04:50:57;96165.09;;;3.96;100.00
32933;BME280;19444;50.518;10.870;2023-03-18T04:53:55;96164.63;;;3.84;100.00
32933;BME280;19444;50.518;10.870;2023-03-18T04:56:52;96166.03;;;3.56;100.00
32933;BME280;19444;50.518;10.870;2023-03-18T04:59:49;96165.19;;;3.71;100.00
32933;BME280;19444;50.518;10.870;2023-03-18T05:02:46;96168.63;;;3.71;100.00
32933;BME280;19444;50.518;10.870;2023-03-18T05:05:44;96164.22;;;3.47;100.00
32933;BME280;19444;50.518;10.870;2023-03-18T05:08:41;96167.16;;;3.35;100.00
32933;BME280;19444;50.518;10.870;2023-03-18T05:11:38;96169.84;;;3.30;100.00
32933;BME280;19444;50.518;10.870;2023-03-18T05:14:35;96167.44;;;3.33;100.00
32933;BME280;19444;50.518;10.870;2023-03-18T05:17:31;96174.06;;;3.41;100.00
32933;BME280;19444;50.518;10.870;2023-03-18T05:20:28;96169.56;;;3.31;100.00
32933;BME280;19444;50.518;10.870;2023-03-18T05:23:25;96170.06;;;3.43;100.00
32933;BME280;19444;50.518;10.870;2023-03-18T05:26:22;96163.47;;;3.36;100.00
32933;BME280;19444;50.518;10.870;2023-03-18T05:29:20;96172.69;;;3.54;100.00
32933;BME280;19444;50.518;10.870;2023-03-18T05:32:17;96167.13;;;3.50;100.00
32933;BME280;19444;50.518;10.870;2023-03-18T05:35:15;96173.44;;;3.64;100.00
32933;BME280;19444;50.518;10.870;2023-03-18T05:38:12;96166.03;;;3.66;100.00
32933;BME280;19444;50.518;10.870;2023-03-18T05:41:09;96171.31;;;3.66;100.00
32933;BME280;19444;50.518;10.870;2023-03-18T05:44:06;96168.91;;;3.65;100.00
32933;BME280;19444;50.518;10.870;2023-03-18T05:47:03;96166.25;;;3.70;100.00
32933;BME280;19444;50.518;10.870;2023-03-18T05:49:59;96158.03;;;3.77;100.00
32933;BME280;19444;50.518;10.870;2023-03-18T05:52:59;96161.97;;;3.84;100.00
32933;BME280;19444;50.518;10.870;2023-03-18T05:55:56;96169.94;;;3.74;100.00
32933;BME280;19444;50.518;10.870;2023-03-18T05:58:53;96164.34;;;3.86;100.00
32933;BME280;19444;50.518;10.870;2023-03-18T06:01:50;96167.22;;;3.89;100.00
32933;BME280;19444;50.518;10.870;2023-03-18T06:04:48;96176.72;;;4.00;100.00
32933;BME280;19444;50.518;10.870;2023-03-18T06:07:45;96170.09;;;4.03;100.00
32933;BME280;19444;50.518;10.870;2023-03-18T06:10:42;96178.50;;;4.10;100.00
32933;BME280;19444;50.518;10.870;2023-03-18T06:13:39;96169.72;;;4.20;100.00
32933;BME280;19444;50.518;10.870;2023-03-18T06:16:37;96169.50;;;4.11;100.00
32933;BME280;19444;50.518;10.870;2023-03-18T06:19:34;96169.72;;;4.20;100.00
32933;BME280;19444;50.518;10.870;2023-03-18T06:22:31;96164.38;;;4.30;100.00
32933;BME280;19444;50.518;10.870;2023-03-18T06:25:28;96158.19;;;4.40;100.00
32933;BME280;19444;50.518;10.870;2023-03-18T06:28:25;96169.03;;;4.48;100.00
32933;BME280;19444;50.518;10.870;2023-03-18T06:31:21;96171.66;;;4.48;100.00
32933;BME280;19444;50.518;10.870;2023-03-18T06:34:18;96166.91;;;4.45;100.00
32933;BME280;19444;50.518;10.870;2023-03-18T06:37:16;96174.69;;;4.66;100.00
32933;BME280;19444;50.518;10.870;2023-03-18T06:40:13;96169.34;;;4.76;100.00
32933;BME280;19444;50.518;10.870;2023-03-18T06:43:11;96179.78;;;4.96;100.00
32933;BME280;19444;50.518;10.870;2023-03-18T06:46:08;96173.59;;;5.06;100.00
32933;BME280;19444;50.518;10.870;2023-03-18T06:49:06;96177.22;;;5.15;100.00
32933;BME280;19444;50.518;10.870;2023-03-18T06:52:03;96177.88;;;5.31;100.00
32933;BME280;19444;50.518;10.870;2023-03-18T06:55:00;96183.41;;;5.34;100.00
32933;BME280;19444;50.518;10.870;2023-03-18T06:57:57;96183.47;;;5.53;100.00
32933;BME280;19444;50.518;10.870;2023-03-18T07:00:54;96190.13;;;5.75;100.00
32933;BME280;19444;50.518;10.870;2023-03-18T07:03:51;96191.16;;;6.03;100.00
32933;BME280;19444;50.518;10.870;2023-03-18T07:06:49;96189.03;;;5.76;100.00
32933;BME280;19444;50.518;10.870;2023-03-18T07:09:46;96200.84;;;5.69;100.00
32933;BME280;19444;50.518;10.870;2023-03-18T07:12:43;96202.50;;;5.84;100.00
32933;BME280;19444;50.518;10.870;2023-03-18T07:15:39;96207.03;;;5.84;100.00
32933;BME280;19444;50.518;10.870;2023-03-18T07:18:36;96216.53;;;5.95;100.00
32933;BME280;19444;50.518;10.870;2023-03-18T07:21:33;96207.56;;;5.86;100.00
32933;BME280;19444;50.518;10.870;2023-03-18T07:24:31;96220.78;;;5.96;100.00
32933;BME280;19444;50.518;10.870;2023-03-18T07:27:28;96217.91;;;6.11;100.00
32933;BME280;19444;50.518;10.870;2023-03-18T07:30:26;96224.16;;;6.20;100.00
32933;BME280;19444;50.518;10.870;2023-03-18T07:33:24;96229.44;;;6.25;100.00
32933;BME280;19444;50.518;10.870;2023-03-18T07:36:21;96230.22;;;6.26;100.00
32933;BME280;19444;50.518;10.870;2023-03-18T07:39:19;96239.59;;;6.23;100.00
32933;BME280;19444;50.518;10.870;2023-03-18T07:42:16;96245.19;;;6.22;100.00
32933;BME280;19444;50.518;10.870;2023-03-18T07:45:13;96245.25;;;6.17;100.00
32933;BME280;19444;50.518;10.870;2023-03-18T07:48:10;96242.47;;;6.27;100.00
32933;BME280;19444;50.518;10.870;2023-03-18T07:51:07;96241.63;;;6.50;100.00
32933;BME280;19444;50.518;10.870;2023-03-18T07:54:04;96243.34;;;6.79;100.00
32933;BME280;19444;50.518;10.870;2023-03-18T07:57:02;96241.09;;;7.05;100.00
32933;BME280;19444;50.518;10.870;2023-03-18T08:00:00;96242.34;;;7.40;100.00
32933;BME280;19444;50.518;10.870;2023-03-18T08:02:57;96245.28;;;8.40;100.00
32933;BME280;19444;50.518;10.870;2023-03-18T08:05:54;96237.63;;;9.19;100.00
32933;BME280;19444;50.518;10.870;2023-03-18T08:08:51;96237.09;;;9.39;100.00
32933;BME280;19444;50.518;10.870;2023-03-18T08:11:48;96251.63;;;8.16;100.00
32933;BME280;19444;50.518;10.870;2023-03-18T08:14:45;96249.53;;;7.99;100.00
32933;BME280;19444;50.518;10.870;2023-03-18T08:17:43;96254.69;;;7.96;100.00
32933;BME280;19444;50.518;10.870;2023-03-18T08:20:40;96251.53;;;8.08;100.00
32933;BME280;19444;50.518;10.870;2023-03-18T08:23:37;96254.78;;;8.18;100.00
32933;BME280;19444;50.518;10.870;2023-03-18T08:26:35;96252.50;;;8.12;100.00
32933;BME280;19444;50.518;10.870;2023-03-18T08:29:32;96254.28;;;8.16;100.00
32933;BME280;19444;50.518;10.870;2023-03-18T08:32:29;96251.72;;;8.11;100.00
32933;BME280;19444;50.518;10.870;2023-03-18T08:35:26;96252.19;;;8.13;100.00
32933;BME280;19444;50.518;10.870;2023-03-18T08:38:23;96251.00;;;8.19;100.00
32933;BME280;19444;50.518;10.870;2023-03-18T08:41:21;96251.00;;;8.61;100.00
32933;BME280;19444;50.518;10.870;2023-03-18T08:44:21;96241.69;;;9.17;100.00
32933;BME280;19444;50.518;10.870;2023-03-18T08:47:18;96234.81;;;11.64;100.00
32933;BME280;19444;50.518;10.870;2023-03-18T08:50:16;96233.50;;;11.06;100.00
32933;BME280;19444;50.518;10.870;2023-03-18T08:53:14;96222.69;;;16.13;95.40
32933;BME280;19444;50.518;10.870;2023-03-18T08:56:11;96219.69;;;17.62;58.66
32933;BME280;19444;50.518;10.870;2023-03-18T08:59:10;96207.31;;;16.84;54.86
32933;BME280;19444;50.518;10.870;2023-03-18T09:02:14;96224.38;;;12.90;91.49
32933;BME280;19444;50.518;10.870;2023-03-18T09:05:14;96223.31;;;12.02;100.00
32933;BME280;19444;50.518;10.870;2023-03-18T09:08:11;96226.56;;;10.88;100.00
32933;BME280;19444;50.518;10.870;2023-03-18T09:11:09;96232.50;;;11.37;100.00
32933;BME280;19444;50.518;10.870;2023-03-18T09:14:06;96227.59;;;12.03;100.00
32933;BME280;19444;50.518;10.870;2023-03-18T09:17:03;96224.56;;;12.05;100.00
32933;BME280;19444;50.518;10.870;2023-03-18T09:20:00;96226.53;;;11.78;100.00
32933;BME280;19444;50.518;10.870;2023-03-18T09:22:58;96232.16;;;11.47;100.00
32933;BME280;19444;50.518;10.870;2023-03-18T09:25:56;96241.53;;;10.72;100.00
32933;BME280;19444;50.518;10.870;2023-03-18T09:28:53;96240.13;;;10.74;100.00
32933;BME280;19444;50.518;10.870;2023-03-18T09:31:50;96232.69;;;11.06;100.00
32933;BME280;19444;50.518;10.870;2023-03-18T09:34:47;96219.44;;;14.15;100.00
32933;BME280;19444;50.518;10.870;2023-03-18T09:37:44;96230.81;;;11.79;100.00
32933;BME280;19444;50.518;10.870;2023-03-18T09:41:01;96224.41;;;11.63;100.00
32933;BME280;19444;50.518;10.870;2023-03-18T09:44:10;96227.53;;;11.74;100.00
32933;BME280;19444;50.518;10.870;2023-03-18T09:50:51;96201.16;;;18.10;55.99
32933;BME280;19444;50.518;10.870;2023-03-18T09:53:58;96187.53;;;19.50;51.89
32933;BME280;19444;50.518;10.870;2023-03-18T09:56:59;96197.28;;;17.85;55.93
32933;BME280;19444;50.518;10.870;2023-03-18T10:00:14;96197.81;;;19.30;51.26
32933;BME280;19444;50.518;10.870;2023-03-18T10:03:28;96191.44;;;18.85;52.49
32933;BME280;19444;50.518;10.870;2023-03-18T10:06:27;96201.91;;;18.34;61.08
32933;BME280;19444;50.518;10.870;2023-03-18T10:09:28;96204.63;;;18.60;60.27
32933;BME280;19444;50.518;10.870;2023-03-18T10:12:42;96190.41;;;20.05;50.26
32933;BME280;19444;50.518;10.870;2023-03-18T10:15:48;96202.22;;;18.55;58.08
32933;BME280;19444;50.518;10.870;2023-03-18T10:18:47;96202.06;;;18.67;81.52
32933;BME280;19444;50.518;10.870;2023-03-18T10:28:48;96196.97;;;19.26;75.38
32933;BME280;19444;50.518;10.870;2023-03-18T10:32:08;96190.94;;;20.21;88.10
32933;BME280;19444;50.518;10.870;2023-03-18T10:35:33;96190.00;;;19.28;94.40
32933;BME280;19444;50.518;10.870;2023-03-18T10:38:42;96194.53;;;19.92;90.17
32933;BME280;19444;50.518;10.870;2023-03-18T10:41:41;96193.81;;;18.11;82.95
32933;BME280;19444;50.518;10.870;2023-03-18T10:44:40;96199.06;;;18.76;95.18
32933;BME280;19444;50.518;10.870;2023-03-18T10:47:38;96196.63;;;17.30;100.00
32933;BME280;19444;50.518;10.870;2023-03-18T10:50:51;96210.06;;;16.53;96.82
32933;BME280;19444;50.518;10.870;2023-03-18T10:54:18;96206.63;;;15.01;100.00
32933;BME280;19444;50.518;10.870;2023-03-18T10:57:18;96197.88;;;15.92;100.00
32933;BME280;19444;50.518;10.870;2023-03-18T11:00:27;96195.84;;;16.91;100.00
32933;BME280;19444;50.518;10.870;2023-03-18T11:03:36;96191.25;;;15.18;100.00
32933;BME280;19444;50.518;10.870;2023-03-18T11:06:55;96177.28;;;18.19;83.50
32933;BME280;19444;50.518;10.870;2023-03-18T11:09:54;96188.06;;;16.54;100.00
32933;BME280;19444;50.518;10.870;2023-03-18T11:12:57;96193.06;;;16.52;100.00
32933;BME280;19444;50.518;10.870;2023-03-18T11:15:56;96179.66;;;18.47;100.00
32933;BME280;19444;50.518;10.870;2023-03-18T11:18:53;96183.56;;;19.10;84.82
32933;BME280;19444;50.518;10.870;2023-03-18T11:22:16;96174.81;;;19.24;100.00
32933;BME280;19444;50.518;10.870;2023-03-18T11:25:18;96175.03;;;19.42;93.41
32933;BME280;19444;50.518;10.870;2023-03-18T11:28:22;96172.97;;;18.68;100.00
32933;BME280;19444;50.518;10.870;2023-03-18T11:31:22;96179.59;;;19.34;93.75
32933;BME280;19444;50.518;10.870;2023-03-18T11:34:20;96178.00;;;19.29;75.38
32933;BME280;19444;50.518;10.870;2023-03-18T11:37:18;96163.59;;;20.62;72.56
32933;BME280;19444;50.518;10.870;2023-03-18T11:40:26;96165.22;;;19.33;100.00
32933;BME280;19444;50.518;10.870;2023-03-18T11:43:23;96150.16;;;20.97;67.51
32933;BME280;19444;50.518;10.870;2023-03-18T11:46:23;96140.69;;;22.14;59.78
32933;BME280;19444;50.518;10.870;2023-03-18T11:49:25;96150.25;;;21.22;57.96
32933;BME280;19444;50.518;10.870;2023-03-18T11:59:48;96149.34;;;18.15;74.19
32933;BME280;19444;50.518;10.870;2023-03-18T12:06:25;96133.19;;;22.47;65.53
32933;BME280;19444;50.518;10.870;2023-03-18T12:09:40;96130.91;;;21.70;99.68
32933;BME280;19444;50.518;10.870;2023-03-18T12:13:12;96132.84;;;21.88;89.01
32933;BME280;19444;50.518;10.870;2023-03-18T12:16:41;96131.19;;;21.29;98.54
32933;BME280;19444;50.518;10.870;2023-03-18T12:30:39;96127.78;;;21.90;61.59
32933;BME280;19444;50.518;10.870;2023-03-18T12:34:47;96133.22;;;22.22;100.00
32933;BME280;19444;50.518;10.870;2023-03-18T12:41:28;96122.34;;;22.04;68.35
32933;BME280;19444;50.518;10.870;2023-03-18T12:45:16;96135.97;;;21.79;99.18
32933;BME280;19444;50.518;10.870;2023-03-18T12:48:03;96135.41;;;20.36;88.10
32933;BME280;19444;50.518;10.870;2023-03-18T12:51:08;96119.16;;;21.34;100.00
32933;BME280;19444;50.518;10.870;2023-03-18T12:54:22;96114.50;;;21.31;73.33
32933;BME280;19444;50.518;10.870;2023-03-18T12:57:47;96111.94;;;20.10;72.84
32933;BME280;19444;50.518;10.870;2023-03-18T13:04:07;96110.63;;;21.71;77.60
32933;BME280;19444;50.518;10.870;2023-03-18T13:07:21;96116.66;;;20.90;83.38
32933;BME280;19444;50.518;10.870;2023-03-18T13:10:23;96107.09;;;21.56;100.00
32933;BME280;19444;50.518;10.870;2023-03-18T13:13:21;96112.97;;;21.73;100.00
32933;BME280;19444;50.518;10.870;2023-03-18T13:16:18;96115.31;;;21.49;100.00
32933;BME280;19444;50.518;10.870;2023-03-18T13:19:18;96110.94;;;22.55;100.00
32933;BME280;19444;50.518;10.870;2023-03-18T13:32:55;96110.13;;;21.16;93.59
32933;BME280;19444;50.518;10.870;2023-03-18T13:37:03;96108.28;;;21.52;98.22
32933;BME280;19444;50.518;10.870;2023-03-18T13:43:30;96093.47;;;21.35;56.28
32933;BME280;19444;50.518;10.870;2023-03-18T13:46:30;96096.19;;;22.21;99.74
32933;BME280;19444;50.518;10.870;2023-03-18T13:49:30;96085.69;;;21.51;55.03
32933;BME280;19444;50.518;10.870;2023-03-18T13:52:41;96094.25;;;22.18;67.18
32933;BME280;19444;50.518;10.870;2023-03-18T13:55:51;96083.47;;;23.05;100.00
32933;BME280;19444;50.518;10.870;2023-03-18T13:58:49;96091.53;;;21.75;98.52
32933;BME280;19444;50.518;10.870;2023-03-18T14:01:50;96089.31;;;20.61;57.64
32933;BME280;19444;50.518;10.870;2023-03-18T14:04:49;96097.94;;;20.08;60.38
32933;BME280;19444;50.518;10.870;2023-03-18T14:07:47;96087.25;;;21.42;92.81
32933;BME280;19444;50.518;10.870;2023-03-18T14:10:45;96079.47;;;21.79;58.05
32933;BME280;19444;50.518;10.870;2023-03-18T14:19:41;96086.72;;;19.66;64.11
32933;BME280;19444;50.518;10.870;2023-03-18T14:22:45;96076.25;;;21.20;94.43
32933;BME280;19444;50.518;10.870;2023-03-18T14:25:43;96093.19;;;20.60;60.41
32933;BME280;19444;50.518;10.870;2023-03-18T14:28:55;96085.25;;;20.34;100.00
32933;BME280;19444;50.518;10.870;2023-03-18T14:31:56;96083.28;;;21.14;93.39
32933;BME280;19444;50.518;10.870;2023-03-18T14:38:19;96082.34;;;19.54;83.43
32933;BME280;19444;50.518;10.870;2023-03-18T14:41:28;96090.69;;;18.64;100.00
32933;BME280;19444;50.518;10.870;2023-03-18T14:44:44;96087.50;;;17.52;86.97
32933;BME280;19444;50.518;10.870;2023-03-18T14:47:50;96079.31;;;17.26;88.45
32933;BME280;19444;50.518;10.870;2023-03-18T14:50:50;96084.97;;;16.75;98.35
32933;BME280;19444;50.518;10.870;2023-03-18T14:54:03;96082.50;;;15.17;100.00
32933;BME280;19444;50.518;10.870;2023-03-18T14:57:02;96084.03;;;17.75;100.00
32933;BME280;19444;50.518;10.870;2023-03-18T15:00:00;96077.41;;;17.99;84.06
32933;BME280;19444;50.518;10.870;2023-03-18T15:03:11;96074.69;;;17.03;100.00
32933;BME280;19444;50.518;10.870;2023-03-18T15:06:19;96067.78;;;16.48;100.00
32933;BME280;19444;50.518;10.870;2023-03-18T15:09:27;96060.13;;;17.12;89.77
32933;BME280;19444;50.518;10.870;2023-03-18T15:12:27;96062.94;;;17.19;100.00
32933;BME280;19444;50.518;10.870;2023-03-18T15:15:24;96064.25;;;18.27;96.56
32933;BME280;19444;50.518;10.870;2023-03-18T15:18:36;96075.44;;;17.96;87.61
32933;BME280;19444;50.518;10.870;2023-03-18T15:21:34;96065.06;;;16.67;92.49
32933;BME280;19444;50.518;10.870;2023-03-18T15:24:32;96069.31;;;17.53;84.51
32933;BME280;19444;50.518;10.870;2023-03-18T15:27:31;96078.22;;;16.11;100.00
32933;BME280;19444;50.518;10.870;2023-03-18T15:30:31;96077.25;;;16.38;100.00
32933;BME280;19444;50.518;10.870;2023-03-18T15:33:35;96084.63;;;15.55;100.00
32933;BME280;19444;50.518;10.870;2023-03-18T15:36:54;96076.34;;;16.15;94.11
32933;BME280;19444;50.518;10.870;2023-03-18T15:39:51;96080.38;;;16.21;98.54
32933;BME280;19444;50.518;10.870;2023-03-18T15:43:28;96083.41;;;15.69;100.00
32933;BME280;19444;50.518;10.870;2023-03-18T15:46:28;96085.47;;;14.68;100.00
32933;BME280;19444;50.518;10.870;2023-03-18T15:49:28;96081.22;;;14.27;100.00
32933;BME280;19444;50.518;10.870;2023-03-18T15:52:34;96082.03;;;14.43;100.00
32933;BME280;19444;50.518;10.870;2023-03-18T15:58:44;96087.72;;;14.14;100.00
32933;BME280;19444;50.518;10.870;2023-03-18T16:01:41;96080.81;;;14.41;100.00
32933;BME280;19444;50.518;10.870;2023-03-18T16:04:39;96074.44;;;14.73;100.00
32933;BME280;19444;50.518;10.870;2023-03-18T16:07:39;96074.69;;;14.68;100.00
32933;BME280;19444;50.518;10.870;2023-03-18T16:10:36;96072.59;;;14.09;100.00
32933;BME280;19444;50.518;10.870;2023-03-18T16:13:34;96078.56;;;14.43;100.00
32933;BME280;19444;50.518;10.870;2023-03-18T16:16:32;96070.16;;;15.79;100.00
32933;BME280;19444;50.518;10.870;2023-03-18T16:19:30;96079.50;;;14.47;100.00
32933;BME280;19444;50.518;10.870;2023-03-18T16:22:27;96095.50;;;14.43;100.00
32933;BME280;19444;50.518;10.870;2023-03-18T16:25:24;96087.31;;;13.87;100.00
32933;BME280;19444;50.518;10.870;2023-03-18T16:28:24;96089.69;;;14.41;100.00
32933;BME280;19444;50.518;10.870;2023-03-18T16:31:22;96083.59;;;14.85;100.00
32933;BME280;19444;50.518;10.870;2023-03-18T16:34:19;96092.16;;;13.70;100.00
32933;BME280;19444;50.518;10.870;2023-03-18T16:37:23;96101.56;;;13.88;100.00
32933;BME280;19444;50.518;10.870;2023-03-18T16:40:27;96100.69;;;13.35;100.00
32933;BME280;19444;50.518;10.870;2023-03-18T16:43:28;96111.22;;;13.40;100.00
32933;BME280;19444;50.518;10.870;2023-03-18T16:46:26;96111.66;;;13.30;100.00
32933;BME280;19444;50.518;10.870;2023-03-18T16:49:30;96122.97;;;12.90;100.00